sensor_id;sensor_type;location;lat;lon;timestamp;P1;durP1;ratioP1;P2;durP2;ratioP2
10450;SDS011;5273;51.290;6.918;2023-04-25T00:01:26;12.13;;;4.77;;
10450;SDS011;5273;51.290;6.918;2023-04-25T00:03:53;9.37;;;4.67;;
10450;SDS011;5273;51.290;6.918;2023-04-25T00:06:21;11.90;;;4.47;;
10450;SDS011;5273;51.290;6.918;2023-04-25T00:08:51;16.90;;;4.90;;
10450;SDS011;5273;51.290;6.918;2023-04-25T00:11:18;14.93;;;4.80;;
10450;SDS011;5273;51.290;6.918;2023-04-25T00:13:45;14.97;;;5.20;;
10450;SDS011;5273;51.290;6.918;2023-04-25T00:16:14;15.30;;;4.77;;
10450;SDS011;5273;51.290;6.918;2023-04-25T00:18:41;10.03;;;4.80;;
10450;SDS011;5273;51.290;6.918;2023-04-25T00:21:08;12.07;;;5.10;;
10450;SDS011;5273;51.290;6.918;2023-04-25T00:23:37;9.83;;;4.70;;
10450;SDS011;5273;51.290;6.918;2023-04-25T00:26:04;14.47;;;5.73;;
10450;SDS011;5273;51.290;6.918;2023-04-25T00:28:31;15.77;;;4.73;;
10450;SDS011;5273;51.290;6.918;2023-04-25T00:30:58;12.50;;;4.40;;
10450;SDS011;5273;51.290;6.918;2023-04-25T00:33:25;13.37;;;5.40;;
10450;SDS011;5273;51.290;6.918;2023-04-25T00:35:51;11.90;;;4.73;;
10450;SDS011;5273;51.290;6.918;2023-04-25T00:38:19;13.97;;;5.17;;
10450;SDS011;5273;51.290;6.918;2023-04-25T00:40:47;8.63;;;4.57;;
10450;SDS011;5273;51.290;6.918;2023-04-25T00:43:14;15.13;;;5.03;;
10450;SDS011;5273;51.290;6.918;2023-04-25T00:45:40;13.33;;;4.90;;
10450;SDS011;5273;51.290;6.918;2023-04-25T00:48:09;8.50;;;4.37;;
10450;SDS011;5273;51.290;6.918;2023-04-25T00:50:37;11.30;;;4.47;;
10450;SDS011;5273;51.290;6.918;2023-04-25T00:53:04;11.07;;;4.43;;
10450;SDS011;5273;51.290;6.918;2023-04-25T00:55:31;9.17;;;4.30;;
10450;SDS011;5273;51.290;6.918;2023-04-25T00:58:01;12.17;;;4.03;;
10450;SDS011;5273;51.290;6.918;2023-04-25T01:00:28;10.43;;;4.23;;
10450;SDS011;5273;51.290;6.918;2023-04-25T01:02:55;12.10;;;4.90;;
10450;SDS011;5273;51.290;6.918;2023-04-25T01:05:22;12.13;;;4.57;;
10450;SDS011;5273;51.290;6.918;2023-04-25T01:07:49;10.17;;;4.87;;
10450;SDS011;5273;51.290;6.918;2023-04-25T01:10:16;10.03;;;4.33;;
10450;SDS011;5273;51.290;6.918;2023-04-25T01:12:43;11.73;;;4.10;;
10450;SDS011;5273;51.290;6.918;2023-04-25T01:15:11;9.57;;;4.30;;
10450;SDS011;5273;51.290;6.918;2023-04-25T01:17:38;10.33;;;4.60;;
10450;SDS011;5273;51.290;6.918;2023-04-25T01:20:06;9.67;;;4.40;;
10450;SDS011;5273;51.290;6.918;2023-04-25T01:22:36;9.17;;;3.87;;
10450;SDS011;5273;51.290;6.918;2023-04-25T01:25:04;10.17;;;3.93;;
10450;SDS011;5273;51.290;6.918;2023-04-25T01:27:31;10.60;;;4.70;;
10450;SDS011;5273;51.290;6.918;2023-04-25T01:29:58;8.10;;;4.23;;
10450;SDS011;5273;51.290;6.918;2023-04-25T01:32:26;15.47;;;4.97;;
10450;SDS011;5273;51.290;6.918;2023-04-25T01:34:53;7.53;;;4.40;;
10450;SDS011;5273;51.290;6.918;2023-04-25T01:37:20;15.00;;;4.23;;
10450;SDS011;5273;51.290;6.918;2023-04-25T01:39:48;8.87;;;4.37;;
10450;SDS011;5273;51.290;6.918;2023-04-25T01:42:15;14.63;;;3.83;;
10450;SDS011;5273;51.290;6.918;2023-04-25T01:44:42;12.43;;;3.77;;
10450;SDS011;5273;51.290;6.918;2023-04-25T01:47:09;13.57;;;4.00;;
10450;SDS011;5273;51.290;6.918;2023-04-25T01:49:36;9.10;;;5.00;;
10450;SDS011;5273;51.290;6.918;2023-04-25T01:52:03;12.90;;;4.43;;
10450;SDS011;5273;51.290;6.918;2023-04-25T01:54:30;9.30;;;4.50;;
10450;SDS011;5273;51.290;6.918;2023-04-25T01:56:58;12.93;;;4.23;;
10450;SDS011;5273;51.290;6.918;2023-04-25T01:59:25;9.13;;;4.27;;
10450;SDS011;5273;51.290;6.918;2023-04-25T02:01:52;10.53;;;4.57;;
10450;SDS011;5273;51.290;6.918;2023-04-25T02:04:19;17.57;;;5.00;;
10450;SDS011;5273;51.290;6.918;2023-04-25T02:06:45;13.87;;;5.50;;
10450;SDS011;5273;51.290;6.918;2023-04-25T02:09:12;10.23;;;4.80;;
10450;SDS011;5273;51.290;6.918;2023-04-25T02:11:39;9.27;;;4.40;;
10450;SDS011;5273;51.290;6.918;2023-04-25T02:14:07;14.40;;;5.00;;
10450;SDS011;5273;51.290;6.918;2023-04-25T02:16:34;10.23;;;5.20;;
10450;SDS011;5273;51.290;6.918;2023-04-25T02:19:02;11.93;;;4.83;;
10450;SDS011;5273;51.290;6.918;2023-04-25T02:21:29;9.00;;;4.50;;
10450;SDS011;5273;51.290;6.918;2023-04-25T02:23:55;13.07;;;4.80;;
10450;SDS011;5273;51.290;6.918;2023-04-25T02:26:22;12.53;;;4.97;;
10450;SDS011;5273;51.290;6.918;2023-04-25T02:28:49;12.30;;;5.10;;
10450;SDS011;5273;51.290;6.918;2023-04-25T02:31:18;9.70;;;4.33;;
10450;SDS011;5273;51.290;6.918;2023-04-25T02:33:45;7.40;;;4.70;;
10450;SDS011;5273;51.290;6.918;2023-04-25T02:36:11;9.87;;;4.47;;
10450;SDS011;5273;51.290;6.918;2023-04-25T02:38:38;6.67;;;4.17;;
10450;SDS011;5273;51.290;6.918;2023-04-25T02:41:05;12.03;;;5.10;;
10450;SDS011;5273;51.290;6.918;2023-04-25T02:43:32;9.53;;;4.40;;
10450;SDS011;5273;51.290;6.918;2023-04-25T02:45:59;10.57;;;5.00;;
10450;SDS011;5273;51.290;6.918;2023-04-25T02:48:27;12.17;;;4.77;;
10450;SDS011;5273;51.290;6.918;2023-04-25T02:50:54;12.40;;;4.63;;
10450;SDS011;5273;51.290;6.918;2023-04-25T02:53:21;9.27;;;4.77;;
10450;SDS011;5273;51.290;6.918;2023-04-25T02:55:48;9.17;;;4.30;;
10450;SDS011;5273;51.290;6.918;2023-04-25T02:58:15;11.00;;;4.60;;
10450;SDS011;5273;51.290;6.918;2023-04-25T03:00:42;8.03;;;3.97;;
10450;SDS011;5273;51.290;6.918;2023-04-25T03:03:08;8.63;;;4.93;;
10450;SDS011;5273;51.290;6.918;2023-04-25T03:05:37;13.23;;;4.80;;
10450;SDS011;5273;51.290;6.918;2023-04-25T03:08:04;16.17;;;5.00;;
10450;SDS011;5273;51.290;6.918;2023-04-25T03:10:30;13.57;;;5.37;;
10450;SDS011;5273;51.290;6.918;2023-04-25T03:12:57;11.90;;;5.33;;
10450;SDS011;5273;51.290;6.918;2023-04-25T03:15:24;11.67;;;5.87;;
10450;SDS011;5273;51.290;6.918;2023-04-25T03:17:51;10.67;;;5.60;;
10450;SDS011;5273;51.290;6.918;2023-04-25T03:20:18;9.53;;;5.30;;
10450;SDS011;5273;51.290;6.918;2023-04-25T03:22:46;12.90;;;5.27;;
10450;SDS011;5273;51.290;6.918;2023-04-25T03:25:13;15.73;;;5.60;;
10450;SDS011;5273;51.290;6.918;2023-04-25T03:27:40;10.60;;;5.57;;
10450;SDS011;5273;51.290;6.918;2023-04-25T03:30:07;8.80;;;4.97;;
10450;SDS011;5273;51.290;6.918;2023-04-25T03:32:34;13.80;;;5.03;;
10450;SDS011;5273;51.290;6.918;2023-04-25T03:35:01;11.30;;;5.53;;
10450;SDS011;5273;51.290;6.918;2023-04-25T03:37:28;7.77;;;5.60;;
10450;SDS011;5273;51.290;6.918;2023-04-25T03:39:56;15.43;;;5.63;;
10450;SDS011;5273;51.290;6.918;2023-04-25T03:42:23;15.37;;;5.17;;
10450;SDS011;5273;51.290;6.918;2023-04-25T03:44:50;10.07;;;5.33;;
10450;SDS011;5273;51.290;6.918;2023-04-25T03:47:18;11.87;;;5.47;;
10450;SDS011;5273;51.290;6.918;2023-04-25T03:49:45;13.07;;;4.97;;
10450;SDS011;5273;51.290;6.918;2023-04-25T03:52:11;16.00;;;5.97;;
10450;SDS011;5273;51.290;6.918;2023-04-25T03:54:38;11.63;;;5.30;;
10450;SDS011;5273;51.290;6.918;2023-04-25T03:57:06;15.23;;;6.67;;
10450;SDS011;5273;51.290;6.918;2023-04-25T03:59:33;18.57;;;5.73;;
10450;SDS011;5273;51.290;6.918;2023-04-25T04:02:00;14.80;;;6.20;;
10450;SDS011;5273;51.290;6.918;2023-04-25T04:04:26;14.00;;;5.80;;
10450;SDS011;5273;51.290;6.918;2023-04-25T04:06:53;17.67;;;6.23;;
10450;SDS011;5273;51.290;6.918;2023-04-25T04:09:20;19.47;;;6.30;;
10450;SDS011;5273;51.290;6.918;2023-04-25T04:11:47;13.00;;;6.80;;
10450;SDS011;5273;51.290;6.918;2023-04-25T04:14:15;18.00;;;6.07;;
10450;SDS011;5273;51.290;6.918;2023-04-25T04:16:42;15.27;;;6.33;;
10450;SDS011;5273;51.290;6.918;2023-04-25T04:19:08;14.87;;;6.40;;
10450;SDS011;5273;51.290;6.918;2023-04-25T04:21:36;15.10;;;6.33;;
10450;SDS011;5273;51.290;6.918;2023-04-25T04:24:02;18.23;;;6.20;;
10450;SDS011;5273;51.290;6.918;2023-04-25T04:26:31;18.30;;;6.60;;
10450;SDS011;5273;51.290;6.918;2023-04-25T04:28:59;19.60;;;6.50;;
10450;SDS011;5273;51.290;6.918;2023-04-25T04:31:27;12.07;;;5.87;;
10450;SDS011;5273;51.290;6.918;2023-04-25T04:33:55;23.67;;;6.90;;
10450;SDS011;5273;51.290;6.918;2023-04-25T04:36:21;17.30;;;6.27;;
10450;SDS011;5273;51.290;6.918;2023-04-25T04:38:51;19.70;;;8.63;;
10450;SDS011;5273;51.290;6.918;2023-04-25T04:41:17;21.87;;;9.07;;
10450;SDS011;5273;51.290;6.918;2023-04-25T04:43:45;14.63;;;7.07;;
10450;SDS011;5273;51.290;6.918;2023-04-25T04:46:12;13.97;;;6.10;;
10450;SDS011;5273;51.290;6.918;2023-04-25T04:48:40;12.97;;;5.77;;
10450;SDS011;5273;51.290;6.918;2023-04-25T04:51:07;14.23;;;6.00;;
10450;SDS011;5273;51.290;6.918;2023-04-25T04:53:34;18.10;;;6.63;;
10450;SDS011;5273;51.290;6.918;2023-04-25T04:56:01;17.53;;;6.90;;
10450;SDS011;5273;51.290;6.918;2023-04-25T04:58:28;18.13;;;6.77;;
10450;SDS011;5273;51.290;6.918;2023-04-25T05:00:55;17.37;;;6.87;;
10450;SDS011;5273;51.290;6.918;2023-04-25T05:03:22;16.17;;;6.70;;
10450;SDS011;5273;51.290;6.918;2023-04-25T05:05:50;10.43;;;6.20;;
10450;SDS011;5273;51.290;6.918;2023-04-25T05:08:17;14.03;;;6.23;;
10450;SDS011;5273;51.290;6.918;2023-04-25T05:10:44;22.57;;;6.50;;
10450;SDS011;5273;51.290;6.918;2023-04-25T05:13:11;17.90;;;7.43;;
10450;SDS011;5273;51.290;6.918;2023-04-25T05:15:38;19.67;;;7.03;;
10450;SDS011;5273;51.290;6.918;2023-04-25T05:18:04;15.40;;;6.53;;
10450;SDS011;5273;51.290;6.918;2023-04-25T05:20:31;13.93;;;5.07;;
10450;SDS011;5273;51.290;6.918;2023-04-25T05:22:59;13.80;;;5.13;;
10450;SDS011;5273;51.290;6.918;2023-04-25T05:25:26;14.43;;;5.53;;
10450;SDS011;5273;51.290;6.918;2023-04-25T05:27:53;18.97;;;5.80;;
10450;SDS011;5273;51.290;6.918;2023-04-25T05:30:20;11.40;;;5.20;;
10450;SDS011;5273;51.290;6.918;2023-04-25T05:32:47;17.00;;;4.47;;
10450;SDS011;5273;51.290;6.918;2023-04-25T05:35:13;14.90;;;5.00;;
10450;SDS011;5273;51.290;6.918;2023-04-25T05:37:40;12.67;;;4.87;;
10450;SDS011;5273;51.290;6.918;2023-04-25T05:40:09;12.90;;;4.57;;
10450;SDS011;5273;51.290;6.918;2023-04-25T05:42:36;15.87;;;4.40;;
10450;SDS011;5273;51.290;6.918;2023-04-25T05:45:03;10.60;;;4.23;;
10450;SDS011;5273;51.290;6.918;2023-04-25T05:47:30;13.03;;;4.43;;
10450;SDS011;5273;51.290;6.918;2023-04-25T05:49:57;17.87;;;4.90;;
10450;SDS011;5273;51.290;6.918;2023-04-25T05:52:24;14.20;;;5.07;;
10450;SDS011;5273;51.290;6.918;2023-04-25T05:54:51;12.33;;;4.50;;
10450;SDS011;5273;51.290;6.918;2023-04-25T05:57:20;14.50;;;4.87;;
10450;SDS011;5273;51.290;6.918;2023-04-25T05:59:48;12.53;;;4.60;;
10450;SDS011;5273;51.290;6.918;2023-04-25T06:02:15;13.30;;;4.90;;
10450;SDS011;5273;51.290;6.918;2023-04-25T06:04:42;20.53;;;4.90;;
10450;SDS011;5273;51.290;6.918;2023-04-25T06:07:09;14.43;;;4.70;;
10450;SDS011;5273;51.290;6.918;2023-04-25T06:09:36;12.17;;;4.50;;
10450;SDS011;5273;51.290;6.918;2023-04-25T06:12:05;11.13;;;3.93;;
10450;SDS011;5273;51.290;6.918;2023-04-25T06:14:33;11.20;;;3.80;;
10450;SDS011;5273;51.290;6.918;2023-04-25T06:17:00;16.77;;;4.30;;
10450;SDS011;5273;51.290;6.918;2023-04-25T06:19:31;8.17;;;4.37;;
10450;SDS011;5273;51.290;6.918;2023-04-25T06:21:58;13.33;;;4.13;;
10450;SDS011;5273;51.290;6.918;2023-04-25T06:24:25;12.17;;;4.07;;
10450;SDS011;5273;51.290;6.918;2023-04-25T06:26:51;12.27;;;4.33;;
10450;SDS011;5273;51.290;6.918;2023-04-25T06:29:18;11.10;;;3.53;;
10450;SDS011;5273;51.290;6.918;2023-04-25T06:31:46;10.87;;;3.97;;
10450;SDS011;5273;51.290;6.918;2023-04-25T06:34:13;11.37;;;4.13;;
10450;SDS011;5273;51.290;6.918;2023-04-25T06:36:40;8.00;;;3.47;;
10450;SDS011;5273;51.290;6.918;2023-04-25T06:39:07;14.45;;;4.10;;
10450;SDS011;5273;51.290;6.918;2023-04-25T06:41:34;7.53;;;3.58;;
10450;SDS011;5273;51.290;6.918;2023-04-25T06:44:00;5.78;;;3.15;;
10450;SDS011;5273;51.290;6.918;2023-04-25T06:46:27;8.27;;;3.67;;
10450;SDS011;5273;51.290;6.918;2023-04-25T06:48:55;11.23;;;3.63;;
10450;SDS011;5273;51.290;6.918;2023-04-25T06:51:22;10.75;;;3.88;;
10450;SDS011;5273;51.290;6.918;2023-04-25T06:53:53;10.23;;;4.05;;
10450;SDS011;5273;51.290;6.918;2023-04-25T06:56:20;10.15;;;4.07;;
10450;SDS011;5273;51.290;6.918;2023-04-25T06:58:48;11.07;;;3.90;;
10450;SDS011;5273;51.290;6.918;2023-04-25T07:01:15;7.55;;;3.10;;
10450;SDS011;5273;51.290;6.918;2023-04-25T07:03:41;7.97;;;3.88;;
10450;SDS011;5273;51.290;6.918;2023-04-25T07:06:10;8.95;;;3.35;;
10450;SDS011;5273;51.290;6.918;2023-04-25T07:08:36;9.82;;;3.63;;
10450;SDS011;5273;51.290;6.918;2023-04-25T07:11:03;9.07;;;3.47;;
10450;SDS011;5273;51.290;6.918;2023-04-25T07:13:30;14.02;;;4.03;;
10450;SDS011;5273;51.290;6.918;2023-04-25T07:15:57;8.98;;;3.70;;
10450;SDS011;5273;51.290;6.918;2023-04-25T07:18:24;8.93;;;3.22;;
10450;SDS011;5273;51.290;6.918;2023-04-25T07:20:51;8.40;;;2.80;;
10450;SDS011;5273;51.290;6.918;2023-04-25T07:23:19;11.40;;;3.25;;
10450;SDS011;5273;51.290;6.918;2023-04-25T07:25:46;10.23;;;3.67;;
10450;SDS011;5273;51.290;6.918;2023-04-25T07:28:13;11.27;;;4.13;;
10450;SDS011;5273;51.290;6.918;2023-04-25T07:30:40;10.75;;;4.35;;
10450;SDS011;5273;51.290;6.918;2023-04-25T07:33:07;8.10;;;3.60;;
10450;SDS011;5273;51.290;6.918;2023-04-25T07:35:33;11.63;;;3.97;;
10450;SDS011;5273;51.290;6.918;2023-04-25T07:38:01;9.95;;;4.40;;
10450;SDS011;5273;51.290;6.918;2023-04-25T07:40:29;8.20;;;3.60;;
10450;SDS011;5273;51.290;6.918;2023-04-25T07:42:56;9.98;;;3.65;;
10450;SDS011;5273;51.290;6.918;2023-04-25T07:45:23;7.38;;;3.28;;
10450;SDS011;5273;51.290;6.918;2023-04-25T07:47:50;11.68;;;3.42;;
10450;SDS011;5273;51.290;6.918;2023-04-25T07:50:17;7.78;;;3.15;;
10450;SDS011;5273;51.290;6.918;2023-04-25T07:52:43;7.85;;;3.00;;
10450;SDS011;5273;51.290;6.918;2023-04-25T07:55:10;5.97;;;2.50;;
10450;SDS011;5273;51.290;6.918;2023-04-25T07:57:39;9.80;;;3.25;;
10450;SDS011;5273;51.290;6.918;2023-04-25T08:00:06;8.15;;;3.00;;
10450;SDS011;5273;51.290;6.918;2023-04-25T08:02:37;9.48;;;2.97;;
10450;SDS011;5273;51.290;6.918;2023-04-25T08:05:04;7.15;;;3.40;;
10450;SDS011;5273;51.290;6.918;2023-04-25T08:07:33;8.07;;;2.72;;
10450;SDS011;5273;51.290;6.918;2023-04-25T08:10:00;6.38;;;2.65;;
10450;SDS011;5273;51.290;6.918;2023-04-25T08:12:27;8.40;;;3.40;;
10450;SDS011;5273;51.290;6.918;2023-04-25T08:14:56;9.30;;;3.85;;
10450;SDS011;5273;51.290;6.918;2023-04-25T08:17:22;8.90;;;3.47;;
10450;SDS011;5273;51.290;6.918;2023-04-25T08:19:49;7.60;;;3.10;;
10450;SDS011;5273;51.290;6.918;2023-04-25T08:22:16;7.80;;;3.25;;
10450;SDS011;5273;51.290;6.918;2023-04-25T08:24:43;8.27;;;3.90;;
10450;SDS011;5273;51.290;6.918;2023-04-25T08:27:10;7.53;;;3.20;;
10450;SDS011;5273;51.290;6.918;2023-04-25T08:29:37;11.88;;;3.95;;
10450;SDS011;5273;51.290;6.918;2023-04-25T08:32:05;7.45;;;3.78;;
10450;SDS011;5273;51.290;6.918;2023-04-25T08:34:32;9.48;;;3.97;;
10450;SDS011;5273;51.290;6.918;2023-04-25T08:36:59;11.50;;;4.00;;
10450;SDS011;5273;51.290;6.918;2023-04-25T08:39:25;9.18;;;4.10;;
10450;SDS011;5273;51.290;6.918;2023-04-25T08:41:52;10.77;;;4.65;;
10450;SDS011;5273;51.290;6.918;2023-04-25T08:44:19;11.57;;;4.93;;
10450;SDS011;5273;51.290;6.918;2023-04-25T08:46:47;8.73;;;4.25;;
10450;SDS011;5273;51.290;6.918;2023-04-25T08:49:16;9.98;;;4.40;;
10450;SDS011;5273;51.290;6.918;2023-04-25T08:51:44;8.93;;;4.00;;
10450;SDS011;5273;51.290;6.918;2023-04-25T08:54:13;8.60;;;3.65;;
10450;SDS011;5273;51.290;6.918;2023-04-25T08:56:41;11.55;;;4.32;;
10450;SDS011;5273;51.290;6.918;2023-04-25T08:59:11;11.90;;;3.97;;
10450;SDS011;5273;51.290;6.918;2023-04-25T09:01:38;10.00;;;3.70;;
10450;SDS011;5273;51.290;6.918;2023-04-25T09:04:05;9.65;;;3.80;;
10450;SDS011;5273;51.290;6.918;2023-04-25T09:06:34;6.55;;;2.88;;
10450;SDS011;5273;51.290;6.918;2023-04-25T09:09:02;10.32;;;3.17;;
10450;SDS011;5273;51.290;6.918;2023-04-25T09:11:31;7.38;;;2.88;;
10450;SDS011;5273;51.290;6.918;2023-04-25T09:14:13;9.35;;;2.95;;
10450;SDS011;5273;51.290;6.918;2023-04-25T09:16:56;7.70;;;2.92;;
10450;SDS011;5273;51.290;6.918;2023-04-25T09:19:25;6.65;;;2.67;;
10450;SDS011;5273;51.290;6.918;2023-04-25T09:21:54;7.93;;;3.15;;
10450;SDS011;5273;51.290;6.918;2023-04-25T09:24:29;7.20;;;2.83;;
10450;SDS011;5273;51.290;6.918;2023-04-25T09:26:57;8.48;;;2.88;;
10450;SDS011;5273;51.290;6.918;2023-04-25T09:29:31;8.20;;;2.92;;
10450;SDS011;5273;51.290;6.918;2023-04-25T09:32:11;8.13;;;2.85;;
10450;SDS011;5273;51.290;6.918;2023-04-25T09:34:40;5.47;;;2.38;;
10450;SDS011;5273;51.290;6.918;2023-04-25T09:37:09;7.07;;;2.53;;
10450;SDS011;5273;51.290;6.918;2023-04-25T09:39:37;8.50;;;2.50;;
10450;SDS011;5273;51.290;6.918;2023-04-25T09:42:04;8.25;;;2.83;;
10450;SDS011;5273;51.290;6.918;2023-04-25T09:44:31;10.23;;;2.83;;
10450;SDS011;5273;51.290;6.918;2023-04-25T09:46:58;4.20;;;2.35;;
10450;SDS011;5273;51.290;6.918;2023-04-25T09:49:25;5.28;;;2.20;;
10450;SDS011;5273;51.290;6.918;2023-04-25T09:51:56;3.53;;;2.15;;
10450;SDS011;5273;51.290;6.918;2023-04-25T09:54:24;5.28;;;2.00;;
10450;SDS011;5273;51.290;6.918;2023-04-25T09:56:52;4.18;;;2.35;;
10450;SDS011;5273;51.290;6.918;2023-04-25T09:59:20;6.70;;;1.92;;
10450;SDS011;5273;51.290;6.918;2023-04-25T10:01:48;5.45;;;2.38;;
10450;SDS011;5273;51.290;6.918;2023-04-25T10:04:17;7.22;;;2.20;;
10450;SDS011;5273;51.290;6.918;2023-04-25T10:06:46;9.73;;;2.60;;
10450;SDS011;5273;51.290;6.918;2023-04-25T10:09:15;6.93;;;2.00;;
10450;SDS011;5273;51.290;6.918;2023-04-25T10:11:46;5.63;;;2.25;;
10450;SDS011;5273;51.290;6.918;2023-04-25T10:14:14;4.07;;;2.10;;
10450;SDS011;5273;51.290;6.918;2023-04-25T10:16:42;6.32;;;2.20;;
10450;SDS011;5273;51.290;6.918;2023-04-25T10:19:09;11.40;;;2.42;;
10450;SDS011;5273;51.290;6.918;2023-04-25T10:21:36;3.63;;;1.80;;
10450;SDS011;5273;51.290;6.918;2023-04-25T10:24:12;5.53;;;2.00;;
10450;SDS011;5273;51.290;6.918;2023-04-25T10:26:39;5.25;;;1.95;;
10450;SDS011;5273;51.290;6.918;2023-04-25T10:29:08;6.18;;;1.65;;
10450;SDS011;5273;51.290;6.918;2023-04-25T10:31:44;3.17;;;1.40;;
10450;SDS011;5273;51.290;6.918;2023-04-25T10:34:12;3.17;;;1.65;;
10450;SDS011;5273;51.290;6.918;2023-04-25T10:36:39;4.82;;;1.73;;
10450;SDS011;5273;51.290;6.918;2023-04-25T10:39:06;6.10;;;1.85;;
10450;SDS011;5273;51.290;6.918;2023-04-25T10:41:45;5.68;;;1.88;;
10450;SDS011;5273;51.290;6.918;2023-04-25T10:44:15;3.85;;;1.67;;
10450;SDS011;5273;51.290;6.918;2023-04-25T10:46:42;3.53;;;1.50;;
10450;SDS011;5273;51.290;6.918;2023-04-25T10:49:11;3.45;;;1.80;;
10450;SDS011;5273;51.290;6.918;2023-04-25T10:52:10;4.32;;;1.65;;
10450;SDS011;5273;51.290;6.918;2023-04-25T10:54:40;3.78;;;1.90;;
10450;SDS011;5273;51.290;6.918;2023-04-25T10:57:14;3.88;;;1.40;;
10450;SDS011;5273;51.290;6.918;2023-04-25T10:59:55;3.42;;;1.73;;
10450;SDS011;5273;51.290;6.918;2023-04-25T11:02:26;3.42;;;1.77;;
10450;SDS011;5273;51.290;6.918;2023-04-25T11:04:53;8.68;;;2.08;;
10450;SDS011;5273;51.290;6.918;2023-04-25T11:07:23;4.60;;;2.00;;
10450;SDS011;5273;51.290;6.918;2023-04-25T11:09:57;4.53;;;1.95;;
10450;SDS011;5273;51.290;6.918;2023-04-25T11:12:29;4.03;;;2.03;;
10450;SDS011;5273;51.290;6.918;2023-04-25T11:15:02;4.53;;;2.00;;
10450;SDS011;5273;51.290;6.918;2023-04-25T11:17:30;4.93;;;1.70;;
10450;SDS011;5273;51.290;6.918;2023-04-25T11:19:58;4.35;;;1.77;;
10450;SDS011;5273;51.290;6.918;2023-04-25T11:22:25;5.55;;;2.10;;
10450;SDS011;5273;51.290;6.918;2023-04-25T11:24:53;7.18;;;2.00;;
10450;SDS011;5273;51.290;6.918;2023-04-25T11:27:20;2.63;;;1.70;;
10450;SDS011;5273;51.290;6.918;2023-04-25T11:29:49;5.50;;;2.22;;
10450;SDS011;5273;51.290;6.918;2023-04-25T11:32:18;4.82;;;1.98;;
10450;SDS011;5273;51.290;6.918;2023-04-25T11:34:46;5.50;;;2.33;;
10450;SDS011;5273;51.290;6.918;2023-04-25T11:37:13;7.00;;;2.20;;
10450;SDS011;5273;51.290;6.918;2023-04-25T11:39:42;6.15;;;2.00;;
10450;SDS011;5273;51.290;6.918;2023-04-25T11:42:11;3.75;;;1.85;;
10450;SDS011;5273;51.290;6.918;2023-04-25T11:44:38;5.80;;;1.83;;
10450;SDS011;5273;51.290;6.918;2023-04-25T11:47:05;5.38;;;2.00;;
10450;SDS011;5273;51.290;6.918;2023-04-25T11:49:34;6.32;;;2.03;;
10450;SDS011;5273;51.290;6.918;2023-04-25T11:52:01;4.70;;;1.80;;
10450;SDS011;5273;51.290;6.918;2023-04-25T11:54:29;6.57;;;1.65;;
10450;SDS011;5273;51.290;6.918;2023-04-25T11:56:56;4.45;;;2.00;;
10450;SDS011;5273;51.290;6.918;2023-04-25T11:59:23;4.93;;;1.88;;
10450;SDS011;5273;51.290;6.918;2023-04-25T12:01:51;5.07;;;1.73;;
10450;SDS011;5273;51.290;6.918;2023-04-25T12:04:19;8.05;;;2.63;;
10450;SDS011;5273;51.290;6.918;2023-04-25T12:06:49;4.70;;;1.90;;
10450;SDS011;5273;51.290;6.918;2023-04-25T12:09:17;8.57;;;2.35;;
10450;SDS011;5273;51.290;6.918;2023-04-25T12:11:46;6.78;;;1.98;;
10450;SDS011;5273;51.290;6.918;2023-04-25T12:14:20;5.15;;;1.88;;
10450;SDS011;5273;51.290;6.918;2023-04-25T12:16:49;3.47;;;1.85;;
10450;SDS011;5273;51.290;6.918;2023-04-25T12:19:17;4.68;;;1.88;;
10450;SDS011;5273;51.290;6.918;2023-04-25T12:21:45;7.40;;;2.50;;
10450;SDS011;5273;51.290;6.918;2023-04-25T12:24:14;4.80;;;2.30;;
10450;SDS011;5273;51.290;6.918;2023-04-25T12:26:50;4.57;;;2.38;;
10450;SDS011;5273;51.290;6.918;2023-04-25T12:29:18;6.38;;;2.30;;
10450;SDS011;5273;51.290;6.918;2023-04-25T12:31:47;8.95;;;2.60;;
10450;SDS011;5273;51.290;6.918;2023-04-25T12:34:14;7.40;;;2.53;;
10450;SDS011;5273;51.290;6.918;2023-04-25T12:36:42;7.63;;;2.87;;
10450;SDS011;5273;51.290;6.918;2023-04-25T12:39:15;5.65;;;2.33;;
10450;SDS011;5273;51.290;6.918;2023-04-25T12:41:42;9.13;;;3.03;;
10450;SDS011;5273;51.290;6.918;2023-04-25T12:44:09;7.37;;;2.63;;
10450;SDS011;5273;51.290;6.918;2023-04-25T12:46:36;4.88;;;2.63;;
10450;SDS011;5273;51.290;6.918;2023-04-25T12:49:04;4.53;;;2.55;;
10450;SDS011;5273;51.290;6.918;2023-04-25T12:51:32;5.57;;;2.55;;
10450;SDS011;5273;51.290;6.918;2023-04-25T12:53:59;5.57;;;2.47;;
10450;SDS011;5273;51.290;6.918;2023-04-25T12:56:27;5.40;;;2.50;;
10450;SDS011;5273;51.290;6.918;2023-04-25T12:58:54;5.13;;;2.40;;
10450;SDS011;5273;51.290;6.918;2023-04-25T13:01:21;5.00;;;2.45;;
10450;SDS011;5273;51.290;6.918;2023-04-25T13:03:48;4.85;;;2.00;;
10450;SDS011;5273;51.290;6.918;2023-04-25T13:06:16;6.28;;;2.10;;
10450;SDS011;5273;51.290;6.918;2023-04-25T13:08:44;3.83;;;1.98;;
10450;SDS011;5273;51.290;6.918;2023-04-25T13:11:11;8.48;;;2.60;;
10450;SDS011;5273;51.290;6.918;2023-04-25T13:13:41;5.13;;;2.60;;
10450;SDS011;5273;51.290;6.918;2023-04-25T13:16:08;4.90;;;2.35;;
10450;SDS011;5273;51.290;6.918;2023-04-25T13:18:35;6.53;;;2.20;;
10450;SDS011;5273;51.290;6.918;2023-04-25T13:21:02;6.28;;;2.20;;
10450;SDS011;5273;51.290;6.918;2023-04-25T13:23:29;5.82;;;2.50;;
10450;SDS011;5273;51.290;6.918;2023-04-25T13:25:56;7.65;;;2.40;;
10450;SDS011;5273;51.290;6.918;2023-04-25T13:28:24;6.13;;;2.50;;
10450;SDS011;5273;51.290;6.918;2023-04-25T13:30:52;4.13;;;2.20;;
10450;SDS011;5273;51.290;6.918;2023-04-25T13:33:19;2.50;;;1.80;;
10450;SDS011;5273;51.290;6.918;2023-04-25T13:35:46;7.07;;;2.55;;
10450;SDS011;5273;51.290;6.918;2023-04-25T13:38:19;4.97;;;2.08;;
10450;SDS011;5273;51.290;6.918;2023-04-25T13:40:47;5.70;;;2.13;;
10450;SDS011;5273;51.290;6.918;2023-04-25T13:43:14;3.90;;;1.95;;
10450;SDS011;5273;51.290;6.918;2023-04-25T13:45:41;4.97;;;1.85;;
10450;SDS011;5273;51.290;6.918;2023-04-25T13:48:09;5.60;;;2.13;;
10450;SDS011;5273;51.290;6.918;2023-04-25T13:50:36;5.45;;;2.00;;
10450;SDS011;5273;51.290;6.918;2023-04-25T13:53:03;5.45;;;1.98;;
10450;SDS011;5273;51.290;6.918;2023-04-25T13:55:30;4.83;;;2.27;;
10450;SDS011;5273;51.290;6.918;2023-04-25T13:57:57;5.37;;;2.17;;
10450;SDS011;5273;51.290;6.918;2023-04-25T14:00:24;5.32;;;2.20;;
10450;SDS011;5273;51.290;6.918;2023-04-25T14:02:51;8.33;;;2.30;;
10450;SDS011;5273;51.290;6.918;2023-04-25T14:05:20;7.10;;;2.00;;
10450;SDS011;5273;51.290;6.918;2023-04-25T14:07:46;9.60;;;2.42;;
10450;SDS011;5273;51.290;6.918;2023-04-25T14:10:13;4.82;;;2.03;;
10450;SDS011;5273;51.290;6.918;2023-04-25T14:12:40;6.97;;;2.10;;
10450;SDS011;5273;51.290;6.918;2023-04-25T14:15:07;6.07;;;2.10;;
10450;SDS011;5273;51.290;6.918;2023-04-25T14:17:35;7.28;;;2.10;;
10450;SDS011;5273;51.290;6.918;2023-04-25T14:20:03;5.57;;;1.85;;
10450;SDS011;5273;51.290;6.918;2023-04-25T14:22:34;8.52;;;1.95;;
10450;SDS011;5273;51.290;6.918;2023-04-25T14:25:01;5.22;;;1.70;;
10450;SDS011;5273;51.290;6.918;2023-04-25T14:27:28;6.55;;;2.25;;
10450;SDS011;5273;51.290;6.918;2023-04-25T14:29:55;6.50;;;2.30;;
10450;SDS011;5273;51.290;6.918;2023-04-25T14:32:22;7.22;;;2.42;;
10450;SDS011;5273;51.290;6.918;2023-04-25T14:34:48;3.95;;;1.67;;
10450;SDS011;5273;51.290;6.918;2023-04-25T14:37:15;4.15;;;2.10;;
10450;SDS011;5273;51.290;6.918;2023-04-25T14:39:44;7.03;;;2.13;;
10450;SDS011;5273;51.290;6.918;2023-04-25T14:42:11;5.05;;;2.10;;
10450;SDS011;5273;51.290;6.918;2023-04-25T14:44:37;4.25;;;2.22;;
10450;SDS011;5273;51.290;6.918;2023-04-25T14:47:04;5.30;;;1.73;;
10450;SDS011;5273;51.290;6.918;2023-04-25T14:49:31;5.68;;;2.00;;
10450;SDS011;5273;51.290;6.918;2023-04-25T14:51:58;4.82;;;1.73;;
10450;SDS011;5273;51.290;6.918;2023-04-25T14:54:26;4.93;;;1.95;;
10450;SDS011;5273;51.290;6.918;2023-04-25T14:56:54;4.57;;;1.77;;
10450;SDS011;5273;51.290;6.918;2023-04-25T14:59:21;5.00;;;1.95;;